Time;durP1;ratioP1;P1;durP2;ratioP2;P2;SDS_P1;SDS_P2;PMS_P1;PMS_P2;Temp;Humidity;BMP_temperature;BMP_pressure;BME280_temperature;BME280_humidity;BME280_pressure;Samples;Min_cycle;Max_cycle;Signal;HPM_P1;HPM_P2
2023/02/26 00:02:03;;;;;;;24.23;13.20;;;;;;;10.82;100.00;98980.59;31372586;28;20598;-81
2023/02/26 00:17:33;;;;;;;27.43;15.40;;;;;;;10.63;100.00;98980.97;31376128;28;20037;-76
2023/02/26 00:32:36;;;;;;;35.17;15.80;;;;;;;10.06;100.00;98967.47;31352415;28;20049;-76
2023/02/26 00:48:00;;;;;;;27.73;12.80;;;;;;;10.06;100.00;98961.28;31364681;28;20406;-76
2023/02/26 01:03:03;;;;;;;35.73;15.53;;;;;;;10.23;100.00;98981.63;31358036;28;20074;-75
2023/02/26 01:18:13;;;;;;;29.90;12.77;;;;;;;10.24;100.00;99010.25;31335976;28;20053;-76
2023/02/26 01:33:43;;;;;;;33.17;16.40;;;;;;;10.36;100.00;99019.53;31352851;28;20516;-76
2023/02/26 01:48:56;;;;;;;38.77;14.53;;;;;;;10.35;100.00;99026.94;31323213;28;20057;-75
2023/02/26 02:03:59;;;;;;;24.60;10.80;;;;;;;10.11;100.00;99044.81;31339644;28;20053;-75
2023/02/26 02:19:26;;;;;;;32.83;12.70;;;;;;;10.32;100.00;99063.06;31341196;28;20053;-76
2023/02/26 02:34:34;;;;;;;30.87;12.17;;;;;;;10.30;100.00;99062.00;31376228;28;20110;-76
2023/02/26 02:49:50;;;;;;;32.20;13.40;;;;;;;10.24;100.00;99048.22;31358882;28;20057;-75
2023/02/26 03:04:52;;;;;;;26.80;12.40;;;;;;;9.89;100.00;99044.78;31344187;28;20441;-75
2023/02/26 03:20:29;;;;;;;30.80;12.77;;;;;;;9.38;100.00;99060.38;31347906;28;20065;-77
2023/02/26 03:35:47;;;;;;;29.27;12.40;;;;;;;9.24;100.00;99067.72;31340052;28;20332;-75
2023/02/26 03:50:51;;;;;;;34.67;15.33;;;;;;;9.15;100.00;99086.59;31344713;28;20134;-75
2023/02/26 04:05:54;;;;;;;30.07;13.00;;;;;;;9.27;100.00;99103.25;31341139;28;20071;-76
2023/02/26 04:20:55;;;;;;;30.57;10.97;;;;;;;9.51;100.00;99183.00;31328764;28;20770;-76
2023/02/26 04:35:58;;;;;;;32.03;13.93;;;;;;;9.71;100.00;99152.97;31364705;28;20098;-77
2023/02/26 04:51:00;;;;;;;27.10;13.43;;;;;;;9.55;100.00;99222.34;31381106;28;20560;-77
2023/02/26 05:06:02;;;;;;;28.03;11.83;;;;;;;9.57;100.00;99224.63;31349783;28;20079;-79
2023/02/26 05:21:06;;;;;;;37.60;12.33;;;;;;;9.76;100.00;99267.03;31363821;28;20049;-78
2023/02/26 05:36:08;;;;;;;25.20;13.30;;;;;;;9.83;100.00;99279.63;31345991;28;20045;-81
2023/02/26 05:51:10;;;;;;;20.80;11.20;;;;;;;9.77;100.00;99252.28;31348035;28;20071;-83
2023/02/26 06:06:16;;;;;;;26.50;11.33;;;;;;;9.79;100.00;99285.16;31366684;28;20473;-80
2023/02/26 06:21:19;;;;;;;22.47;10.97;;;;;;;9.78;100.00;99327.00;31338961;28;20061;-80
2023/02/26 06:36:21;;;;;;;24.97;11.27;;;;;;;9.84;100.00;99330.69;31385500;28;20044;-77
2023/02/26 06:51:23;;;;;;;36.10;14.27;;;;;;;9.61;100.00;99387.13;31364613;28;20493;-76
2023/02/26 07:06:25;;;;;;;44.97;16.10;;;;;;;9.50;100.00;99436.16;31360988;28;20414;-77
2023/02/26 07:21:28;;;;;;;39.60;16.07;;;;;;;9.37;100.00;99455.06;31395276;28;20057;-78
2023/02/26 07:36:31;;;;;;;31.97;16.03;;;;;;;9.39;100.00;99487.91;31396298;28;20083;-75
2023/02/26 07:51:33;;;;;;;37.73;16.00;;;;;;;9.44;100.00;99502.91;31388981;28;20544;-79
2023/02/26 08:06:36;;;;;;;34.50;16.83;;;;;;;9.67;100.00;99527.09;31331572;28;20048;-80
2023/02/26 08:21:38;;;;;;;40.43;16.80;;;;;;;9.80;100.00;99544.19;31357022;28;20052;-76
2023/02/26 08:36:40;;;;;;;43.50;18.37;;;;;;;9.86;100.00;99544.44;31395169;28;20094;-78
2023/02/26 08:51:42;;;;;;;41.33;17.97;;;;;;;9.30;100.00;99562.81;31359821;28;20140;-78
2023/02/26 09:06:44;;;;;;;40.20;17.10;;;;;;;9.22;100.00;99568.38;31325189;28;20112;-78
2023/02/26 09:21:47;;;;;;;39.10;17.67;;;;;;;9.26;100.00;99578.38;31343101;28;20514;-80
2023/02/26 09:36:49;;;;;;;38.23;18.50;;;;;;;9.21;100.00;99593.22;31386336;28;20068;-79
2023/02/26 09:52:11;;;;;;;47.07;20.63;;;;;;;9.31;100.00;99580.59;31352470;28;20123;-71
2023/02/26 10:07:37;;;;;;;56.60;24.17;;;;;;;9.60;100.00;99586.13;31331592;28;20061;-75
2023/02/26 10:22:49;;;;;;;49.23;23.00;;;;;;;9.68;100.00;99584.78;31343649;28;20098;-75
2023/02/26 10:38:01;;;;;;;48.80;23.53;;;;;;;10.16;100.00;99589.34;31367400;28;20045;-73
2023/02/26 10:53:04;;;;;;;53.43;26.33;;;;;;;9.89;100.00;99571.44;31342550;28;20049;-74
2023/02/26 11:08:18;;;;;;;71.60;28.87;;;;;;;10.07;100.00;99564.81;31346615;28;20057;-74
2023/02/26 11:23:22;;;;;;;60.00;25.07;;;;;;;10.24;100.00;99598.84;31353996;28;20517;-73
2023/02/26 11:38:26;;;;;;;41.00;18.13;;;;;;;10.22;100.00;99629.13;31383741;28;20055;-71
2023/02/26 11:53:35;;;;;;;43.03;19.80;;;;;;;10.07;100.00;99679.47;31322120;28;20063;-74
2023/02/26 12:08:38;;;;;;;57.30;21.77;;;;;;;9.90;100.00;99705.81;31351193;28;20053;-75
2023/02/26 12:24:17;;;;;;;48.03;20.90;;;;;;;9.76;100.00;99692.59;31332988;28;20047;-78
2023/02/26 12:39:38;;;;;;;46.60;19.83;;;;;;;9.67;100.00;99687.00;31397352;28;20052;-80
2023/02/26 12:55:08;;;;;;;44.17;19.47;;;;;;;9.88;100.00;99708.19;31385379;28;20045;-79
2023/02/26 13:10:15;;;;;;;49.00;21.10;;;;;;;9.71;100.00;99719.41;31350167;28;20501;-78
2023/02/26 13:25:33;;;;;;;48.00;20.83;;;;;;;9.77;100.00;99694.09;31363751;28;20053;-78
2023/02/26 13:40:57;;;;;;;47.83;22.50;;;;;;;9.91;100.00;99677.53;31364085;28;20395;-80
2023/02/26 13:56:31;;;;;;;50.10;19.40;;;;;;;9.69;100.00;99659.44;31360032;28;20057;-81
2023/02/26 14:11:58;;;;;;;73.77;32.13;;;;;;;9.85;100.00;99679.22;31368985;28;20115;-81
2023/02/26 14:27:30;;;;;;;44.23;21.40;;;;;;;9.66;100.00;99731.53;31413429;28;20513;-83
2023/02/26 14:42:41;;;;;;;56.90;23.60;;;;;;;9.38;100.00;99651.63;31393717;28;20098;-80
2023/02/26 14:57:55;;;;;;;66.23;26.43;;;;;;;8.93;100.00;99626.31;31368741;28;20425;-78
2023/02/26 15:13:22;;;;;;;95.73;29.47;;;;;;;9.02;100.00;99626.47;31360921;28;20360;-76
2023/02/26 15:28:28;;;;;;;99.47;38.87;;;;;;;9.18;100.00;99653.63;31360860;28;20048;-78
2023/02/26 15:43:30;;;;;;;91.60;26.73;;;;;;;9.60;100.00;99662.75;31373827;28;20071;-76
2023/02/26 15:58:41;;;;;;;88.80;25.70;;;;;;;9.74;100.00;99689.53;31376977;28;20506;-78
2023/02/26 16:13:44;;;;;;;70.63;24.57;;;;;;;9.85;100.00;99767.91;31368301;28;20584;-78
2023/02/26 16:28:56;;;;;;;81.73;30.43;;;;;;;9.62;100.00;99806.75;31406721;28;20482;-76
2023/02/26 16:44:01;;;;;;;77.13;28.97;;;;;;;9.68;100.00;99805.06;31384722;28;20055;-76
2023/02/26 16:59:15;;;;;;;101.63;33.53;;;;;;;9.54;100.00;99816.94;31340230;28;20049;-77
2023/02/26 17:14:24;;;;;;;142.07;32.30;;;;;;;9.87;100.00;99825.97;31356531;28;20037;-81
2023/02/26 17:29:36;;;;;;;103.57;33.40;;;;;;;9.93;100.00;99843.25;31403855;28;20696;-79
2023/02/26 17:44:42;;;;;;;97.20;34.23;;;;;;;9.90;100.00;99867.75;31401251;28;20089;-80
2023/02/26 17:59:45;;;;;;;80.33;27.37;;;;;;;9.77;100.00;99866.84;31355737;28;20136;-80
2023/02/26 18:14:47;;;;;;;120.27;47.13;;;;;;;9.43;100.00;99867.13;31384064;28;20076;-78
2023/02/26 18:29:50;;;;;;;110.07;32.93;;;;;;;9.38;100.00;99867.59;31359172;28;20110;-78
2023/02/26 18:44:53;;;;;;;84.50;27.27;;;;;;;9.61;100.00;99924.47;31335984;28;20410;-79
2023/02/26 18:59:55;;;;;;;76.73;29.30;;;;;;;9.41;100.00;99943.41;31375453;28;20049;-77
2023/02/26 19:14:57;;;;;;;64.87;24.57;;;;;;;9.11;100.00;99928.03;31340514;28;20494;-80
2023/02/26 19:29:59;;;;;;;72.97;25.20;;;;;;;9.05;100.00;99954.03;31416386;28;20045;-80
2023/02/26 19:45:02;;;;;;;78.07;26.33;;;;;;;9.12;100.00;99959.34;31391229;28;20061;-79
2023/02/26 20:00:04;;;;;;;61.13;21.97;;;;;;;9.17;100.00;99944.59;31402438;28;20185;-78
2023/02/26 20:15:07;;;;;;;47.77;20.93;;;;;;;9.16;100.00;99960.06;31378925;28;20048;-76
2023/02/26 20:30:10;;;;;;;54.70;21.73;;;;;;;9.19;100.00;99975.50;31366390;28;20409;-76
2023/02/26 20:45:12;;;;;;;45.30;14.73;;;;;;;8.98;100.00;99983.94;31354290;28;20045;-73
2023/02/26 21:00:14;;;;;;;44.70;15.83;;;;;;;8.75;100.00;100005.53;31402232;28;20056;-84
2023/02/26 21:15:16;;;;;;;57.77;19.10;;;;;;;8.58;100.00;100033.59;31398069;28;20040;-74
2023/02/26 21:30:18;;;;;;;60.73;19.07;;;;;;;8.55;100.00;100060.28;31320964;28;20057;-77
2023/02/26 21:45:20;;;;;;;53.00;17.43;;;;;;;8.42;100.00;100072.81;31336746;28;20438;-76
2023/02/26 22:00:22;;;;;;;38.77;13.40;;;;;;;8.40;100.00;100077.88;31341295;28;20065;-77
2023/02/26 22:15:24;;;;;;;29.30;11.77;;;;;;;8.38;100.00;100101.84;31319347;28;20099;-75
2023/02/26 22:30:26;;;;;;;27.73;9.77;;;;;;;8.45;100.00;100131.53;31338667;28;20055;-79
2023/02/26 22:45:28;;;;;;;26.00;9.57;;;;;;;8.36;100.00;100144.75;31322664;28;20112;-76
2023/02/26 23:00:30;;;;;;;21.07;8.43;;;;;;;8.34;100.00;100149.03;31341672;28;20083;-81
2023/02/26 23:15:32;;;;;;;22.87;9.53;;;;;;;8.32;100.00;100162.97;31369417;28;20099;-82
2023/02/26 23:30:35;;;;;;;19.03;8.17;;;;;;;8.16;100.00;100192.44;31368087;28;20087;-75
2023/02/26 23:45:37;;;;;;;18.20;7.33;;;;;;;8.04;100.00;100184.81;31341952;28;20052;-75
